Muzaffargarh Weather



Muzaffargarh's Current Weather

Temprature 19o haze

haze

Rain: 0 %

Min Temprature19o
Max Temprature19o
Humidity32
Wind Speed2.39 m/h
Sun Rise07:09:55
Sun Set17:43:51
Current Time: 23-Jan-2021 18:10:47
Lat/Lon: 30.0754, 71.1921




Muzaffargarh's Geo Location



Muzaffargarh's Weather Forecast

Time Overall Temp Min Temp Max Temp Humidity Wind Speed Rain
23-Jan-2021 (Sat)
20:00:00 clear sky 16.770 14.440 16.770 34 3.51 m/h 0 %
23:00:00 clear sky 13.280 11.700 13.280 39 2.33 m/h 0 %
24-Jan-2021 (Sun)
02:00:00 clear sky 10.110 9.500 10.110 42 1.99 m/h 0 %
05:00:00 clear sky 8.820 8.740 8.820 44 1.91 m/h 0 %
08:00:00 clear sky 10.210 10.210 10.210 41 1.25 m/h 0 %
11:00:00 clear sky 18.920 18.920 18.920 24 1.58 m/h 0 %
14:00:00 clear sky 21.950 21.950 21.950 18 3.02 m/h 0 %
17:00:00 clear sky 19.890 19.890 19.890 20 2.66 m/h 0 %
20:00:00 clear sky 13.350 13.350 13.350 31 2.11 m/h 0 %
23:00:00 clear sky 10.930 10.930 10.930 37 1.09 m/h 0 %
25-Jan-2021 (Mon)
02:00:00 clear sky 10.060 10.060 10.060 37 1.89 m/h 0 %
05:00:00 clear sky 8.690 8.690 8.690 39 1.21 m/h 0 %
08:00:00 clear sky 10.130 10.130 10.130 35 1.03 m/h 0 %
11:00:00 clear sky 20.020 20.020 20.020 18 2.19 m/h 0 %
14:00:00 clear sky 23.160 23.160 23.160 14 2.09 m/h 0 %
17:00:00 clear sky 20.330 20.330 20.330 18 1.61 m/h 0 %
20:00:00 clear sky 13.560 13.560 13.560 27 1.31 m/h 0 %
23:00:00 clear sky 11.060 11.060 11.060 32 0.34 m/h 0 %
26-Jan-2021 (Tue)
02:00:00 clear sky 10.160 10.160 10.160 34 0.93 m/h 0 %
05:00:00 clear sky 8.940 8.940 8.940 37 0.62 m/h 0 %
08:00:00 clear sky 10.590 10.590 10.590 33 0.44 m/h 0 %
11:00:00 clear sky 20.630 20.630 20.630 17 0.74 m/h 0 %
14:00:00 clear sky 23.540 23.540 23.540 14 1.2 m/h 0 %
17:00:00 clear sky 21.040 21.040 21.040 17 2.08 m/h 0 %
20:00:00 clear sky 14.890 14.890 14.890 28 3.07 m/h 0 %
23:00:00 clear sky 11.980 11.980 11.980 36 1.2 m/h 0 %
27-Jan-2021 (Wed)
02:00:00 clear sky 9.840 9.840 9.840 42 0.29 m/h 0 %
05:00:00 clear sky 8.870 8.870 8.870 44 0.43 m/h 0 %
08:00:00 clear sky 11.040 11.040 11.040 38 0.41 m/h 0 %
11:00:00 clear sky 20.980 20.980 20.980 20 1.4 m/h 0 %
14:00:00 clear sky 23.690 23.690 23.690 16 1.59 m/h 0 %
17:00:00 clear sky 21.350 21.350 21.350 18 1.93 m/h 0 %
20:00:00 clear sky 14.570 14.570 14.570 29 2.25 m/h 0 %
23:00:00 clear sky 11.920 11.920 11.920 37 0.92 m/h 0 %
28-Jan-2021 (Thu)
02:00:00 clear sky 10.500 10.500 10.500 40 1.45 m/h 0 %
05:00:00 clear sky 9.090 9.090 9.090 44 0.73 m/h 0 %
08:00:00 clear sky 10.680 10.680 10.680 40 0.68 m/h 0 %
11:00:00 clear sky 20.810 20.810 20.810 20 0.7 m/h 0 %
14:00:00 clear sky 24.280 24.280 24.280 15 0.77 m/h 0 %
17:00:00 clear sky 21.790 21.790 21.790 18 0.87 m/h 0 %

Famous Cities (60)